createdAt,value
2023-05-06T00:00:28.697Z,15.09
2023-05-06T00:02:55.413Z,14.80
2023-05-06T00:05:21.956Z,14.69
2023-05-06T00:07:48.380Z,14.85
2023-05-06T00:10:14.828Z,14.85
2023-05-06T00:12:41.182Z,14.83
2023-05-06T00:15:08.128Z,14.99
2023-05-06T00:17:34.674Z,14.86
2023-05-06T00:20:01.041Z,14.83
2023-05-06T00:22:27.356Z,14.86
2023-05-06T00:24:53.660Z,14.89
2023-05-06T00:27:20.026Z,14.81
2023-05-06T00:29:46.338Z,14.56
2023-05-06T00:32:12.747Z,14.79
2023-05-06T00:34:39.103Z,14.71
2023-05-06T00:37:05.492Z,14.57
2023-05-06T00:39:31.955Z,14.68
2023-05-06T00:42:04.310Z,14.71
2023-05-06T00:44:31.801Z,14.67
2023-05-06T00:46:59.344Z,14.70
2023-05-06T00:49:25.775Z,14.82
2023-05-06T00:51:53.694Z,14.37
2023-05-06T00:54:20.336Z,14.36
2023-05-06T00:56:46.895Z,14.49
2023-05-06T00:59:13.399Z,14.60
2023-05-06T01:01:40.563Z,14.31
2023-05-06T01:04:08.600Z,14.37
2023-05-06T01:06:49.326Z,14.54
2023-05-06T01:09:40.335Z,14.38
2023-05-06T01:12:12.359Z,14.41
2023-05-06T01:14:56.118Z,14.14
2023-05-06T01:17:27.786Z,13.83
2023-05-06T01:19:58.519Z,13.98
2023-05-06T01:22:28.497Z,14.06
2023-05-06T01:24:54.807Z,14.02
2023-05-06T01:27:21.750Z,13.86
2023-05-06T01:29:48.392Z,13.81
2023-05-06T01:32:50.405Z,13.90
2023-05-06T01:35:26.945Z,13.82
2023-05-06T01:38:37.207Z,13.81
2023-05-06T01:41:03.922Z,13.84
2023-05-06T01:43:38.010Z,13.76
2023-05-06T01:46:05.895Z,13.66
2023-05-06T01:48:36.209Z,13.48
2023-05-06T01:51:02.890Z,13.56
2023-05-06T01:53:29.184Z,13.63
2023-05-06T01:55:55.535Z,13.48
2023-05-06T01:58:21.911Z,13.36
2023-05-06T02:00:48.241Z,13.41
2023-05-06T02:03:15.027Z,13.22
2023-05-06T02:05:41.590Z,13.26
2023-05-06T02:08:10.465Z,13.16
2023-05-06T02:10:37.089Z,13.13
2023-05-06T02:13:07.596Z,13.41
2023-05-06T02:15:34.044Z,13.25
2023-05-06T02:18:01.424Z,13.02
2023-05-06T02:20:28.005Z,12.96
2023-05-06T02:22:54.359Z,12.95
2023-05-06T02:25:22.749Z,12.81
2023-05-06T02:27:49.069Z,12.94
2023-05-06T02:30:16.451Z,13.18
2023-05-06T02:32:42.911Z,12.67
2023-05-06T02:35:09.869Z,12.84
2023-05-06T02:37:36.381Z,12.93
2023-05-06T02:40:02.726Z,13.02
2023-05-06T02:42:31.637Z,12.93
2023-05-06T02:44:57.998Z,13.18
2023-05-06T02:47:24.392Z,13.09
2023-05-06T02:49:50.768Z,13.13
2023-05-06T02:52:18.284Z,12.86
2023-05-06T02:54:44.587Z,12.79
2023-05-06T02:57:10.894Z,12.37
2023-05-06T02:59:37.258Z,12.39
2023-05-06T03:02:03.563Z,12.49
2023-05-06T03:04:29.979Z,12.25
2023-05-06T03:06:57.269Z,12.49
2023-05-06T03:09:23.670Z,12.63
2023-05-06T03:11:50.034Z,12.56
2023-05-06T03:14:16.893Z,12.46
2023-05-06T03:16:43.640Z,12.17
2023-05-06T03:19:10.161Z,12.47
2023-05-06T03:21:36.683Z,12.57
2023-05-06T03:24:03.241Z,12.59
2023-05-06T03:26:30.469Z,12.35
2023-05-06T03:28:57.497Z,12.39
2023-05-06T03:31:24.506Z,12.33
2023-05-06T03:33:50.939Z,12.51
2023-05-06T03:36:18.034Z,12.34
2023-05-06T03:38:46.668Z,12.32
2023-05-06T03:41:13.006Z,12.45
2023-05-06T03:43:40.100Z,12.31
2023-05-06T03:46:07.746Z,12.26
2023-05-06T03:48:35.728Z,12.21
2023-05-06T03:51:05.639Z,11.91
2023-05-06T03:53:32.413Z,12.04
2023-05-06T03:55:58.981Z,12.10
2023-05-06T03:58:26.262Z,11.84
2023-05-06T04:00:52.978Z,11.51
2023-05-06T04:03:19.401Z,11.71
2023-05-06T04:05:50.577Z,12.13
2023-05-06T04:08:19.865Z,12.13
2023-05-06T04:10:46.352Z,12.01
2023-05-06T04:13:24.126Z,12.19
2023-05-06T04:15:52.839Z,12.21
2023-05-06T04:18:23.763Z,12.09
2023-05-06T04:20:58.083Z,12.10
2023-05-06T04:23:25.211Z,12.06
2023-05-06T04:25:51.698Z,12.10
2023-05-06T04:28:20.593Z,11.90
2023-05-06T04:30:49.723Z,12.11
2023-05-06T04:33:16.462Z,11.92
2023-05-06T04:35:53.550Z,11.86
2023-05-06T04:38:25.556Z,12.01
2023-05-06T04:40:52.541Z,11.97
2023-05-06T04:43:19.309Z,11.73
2023-05-06T04:45:50.863Z,11.90
2023-05-06T04:48:22.646Z,12.13
2023-05-06T04:50:50.837Z,12.13
2023-05-06T04:53:17.767Z,12.17
2023-05-06T04:55:44.317Z,12.16
2023-05-06T04:58:10.792Z,12.03
2023-05-06T05:00:38.152Z,12.09
2023-05-06T05:03:04.747Z,12.00
2023-05-06T05:05:34.173Z,12.10
2023-05-06T05:08:01.332Z,12.15
2023-05-06T05:10:30.200Z,12.39
2023-05-06T05:12:56.696Z,12.51
2023-05-06T05:15:23.728Z,12.41
2023-05-06T05:17:50.601Z,12.37
2023-05-06T05:20:17.727Z,12.28
2023-05-06T05:22:44.098Z,12.31
2023-05-06T05:25:10.684Z,12.32
2023-05-06T05:27:37.097Z,12.46
2023-05-06T05:30:03.860Z,12.35
2023-05-06T05:32:32.750Z,12.49
2023-05-06T05:34:59.061Z,12.65
2023-05-06T05:37:25.440Z,12.71
2023-05-06T05:39:52.344Z,12.70
2023-05-06T05:42:19.873Z,12.56
2023-05-06T05:44:47.054Z,12.84
2023-05-06T05:47:13.494Z,12.84
2023-05-06T05:49:39.827Z,12.99
2023-05-06T05:52:07.277Z,12.94
2023-05-06T05:54:33.830Z,12.81
2023-05-06T05:57:00.800Z,13.00
2023-05-06T05:59:28.765Z,13.10
2023-05-06T06:01:59.752Z,13.15
2023-05-06T06:04:26.187Z,13.20
2023-05-06T06:06:52.621Z,13.30
2023-05-06T06:09:20.042Z,13.53
2023-05-06T06:11:47.504Z,13.52
2023-05-06T06:14:15.237Z,13.58
2023-05-06T06:16:42.031Z,13.61
2023-05-06T06:19:08.632Z,13.66
2023-05-06T06:21:35.839Z,13.47
2023-05-06T06:24:02.517Z,13.46
2023-05-06T06:26:29.674Z,13.53
2023-05-06T06:28:56.042Z,13.60
2023-05-06T06:31:22.439Z,13.67
2023-05-06T06:33:48.778Z,13.74
2023-05-06T06:36:15.113Z,13.74
2023-05-06T06:38:42.062Z,13.69
2023-05-06T06:41:09.143Z,13.77
2023-05-06T06:43:35.806Z,13.76
2023-05-06T06:46:14.611Z,13.75
2023-05-06T06:48:41.013Z,13.74
2023-05-06T06:51:07.382Z,13.84
2023-05-06T06:53:33.777Z,13.92
2023-05-06T06:56:00.119Z,13.97
2023-05-06T06:58:26.518Z,14.02
2023-05-06T07:00:52.902Z,14.06
2023-05-06T07:03:19.634Z,14.13
2023-05-06T07:05:46.397Z,14.24
2023-05-06T07:08:12.746Z,14.21
2023-05-06T07:10:39.108Z,14.15
2023-05-06T07:13:05.608Z,14.15
2023-05-06T07:15:31.967Z,14.17
2023-05-06T07:17:58.344Z,14.14
2023-05-06T07:20:24.881Z,14.14
2023-05-06T07:22:51.249Z,14.18
2023-05-06T07:25:17.620Z,14.23
2023-05-06T07:27:43.993Z,14.27
2023-05-06T07:30:10.656Z,14.40
2023-05-06T07:32:37.078Z,14.44
2023-05-06T07:35:03.663Z,14.58
2023-05-06T07:37:29.985Z,14.70
2023-05-06T07:39:56.703Z,14.85
2023-05-06T07:42:22.988Z,14.92
2023-05-06T07:44:49.354Z,15.00
2023-05-06T07:47:32.021Z,15.05
2023-05-06T07:49:59.116Z,15.07
2023-05-06T07:52:25.943Z,15.19
2023-05-06T07:54:52.957Z,15.19
2023-05-06T07:57:19.319Z,15.24
2023-05-06T07:59:49.840Z,15.35
2023-05-06T08:02:16.466Z,15.53
2023-05-06T08:04:43.208Z,15.63
2023-05-06T08:07:10.507Z,15.69
2023-05-06T08:09:37.024Z,15.69
2023-05-06T08:12:03.533Z,15.74
2023-05-06T08:14:29.930Z,15.74
2023-05-06T08:16:56.255Z,15.81
2023-05-06T08:19:23.103Z,15.82
2023-05-06T08:21:50.326Z,15.83
2023-05-06T08:24:16.686Z,15.94
2023-05-06T08:26:43.042Z,16.16
2023-05-06T08:29:09.528Z,16.28
2023-05-06T08:31:35.872Z,16.38
2023-05-06T08:34:02.316Z,16.57
2023-05-06T08:36:28.823Z,16.75
2023-05-06T08:38:55.198Z,16.92
2023-05-06T08:41:22.290Z,17.11
2023-05-06T08:43:50.281Z,17.27
2023-05-06T08:46:17.300Z,17.50
2023-05-06T08:48:43.632Z,17.57
2023-05-06T08:51:13.814Z,17.73
2023-05-06T08:53:46.674Z,17.86
2023-05-06T08:56:14.865Z,17.97
2023-05-06T08:58:45.268Z,18.15
2023-05-06T09:01:12.058Z,18.30
2023-05-06T09:03:38.621Z,18.08
2023-05-06T09:06:05.056Z,18.05
2023-05-06T09:08:31.374Z,18.08
2023-05-06T09:10:57.694Z,18.29
2023-05-06T09:13:24.535Z,18.36
2023-05-06T09:15:54.158Z,18.46
2023-05-06T09:18:20.821Z,18.31
2023-05-06T09:20:49.182Z,18.24
2023-05-06T09:23:17.515Z,18.15
2023-05-06T09:25:46.130Z,18.20
2023-05-06T09:28:13.848Z,18.22
2023-05-06T09:30:41.634Z,18.29
2023-05-06T09:33:08.878Z,18.33
2023-05-06T09:35:40.205Z,18.32
2023-05-06T09:38:07.721Z,18.27
2023-05-06T09:40:38.580Z,18.22
2023-05-06T09:43:05.649Z,18.11
2023-05-06T09:45:32.585Z,18.07
2023-05-06T09:47:59.136Z,18.05
2023-05-06T09:50:26.407Z,18.19
2023-05-06T09:52:54.453Z,18.34
2023-05-06T09:55:22.704Z,18.49
2023-05-06T09:57:49.889Z,18.56
2023-05-06T10:00:17.334Z,18.52
2023-05-06T10:02:45.563Z,18.50
2023-05-06T10:05:13.302Z,18.48
2023-05-06T10:07:41.902Z,18.47
2023-05-06T10:10:10.960Z,18.58
2023-05-06T10:12:38.126Z,18.58
2023-05-06T10:15:05.207Z,18.63
2023-05-06T10:17:32.573Z,18.73
2023-05-06T10:20:00.935Z,18.88
2023-05-06T10:22:59.435Z,19.12
2023-05-06T10:25:40.331Z,19.12
2023-05-06T10:28:10.817Z,18.93
2023-05-06T10:30:45.542Z,18.81
2023-05-06T10:33:14.391Z,18.64
2023-05-06T10:35:44.203Z,18.91
2023-05-06T10:38:19.558Z,18.89
2023-05-06T10:40:46.540Z,18.87
2023-05-06T10:43:30.409Z,18.93
2023-05-06T10:46:11.836Z,19.44
2023-05-06T10:49:04.709Z,19.44
2023-05-06T10:51:34.561Z,19.48
2023-05-06T10:54:19.267Z,19.69
2023-05-06T10:56:48.557Z,19.56
2023-05-06T10:59:20.326Z,19.38
2023-05-06T11:01:57.142Z,19.20
2023-05-06T11:04:23.825Z,19.13
2023-05-06T11:06:52.894Z,18.99
2023-05-06T11:09:19.429Z,19.75
2023-05-06T11:11:52.105Z,20.64
2023-05-06T11:14:29.830Z,21.21
2023-05-06T11:17:01.440Z,21.60
2023-05-06T11:19:33.274Z,21.74
2023-05-06T11:22:01.315Z,22.00
2023-05-06T11:24:42.899Z,22.24
2023-05-06T11:27:10.593Z,22.36
2023-05-06T11:29:37.440Z,22.32
2023-05-06T11:32:05.534Z,22.30
2023-05-06T11:34:33.129Z,22.52
2023-05-06T11:37:07.192Z,22.86
2023-05-06T11:39:40.377Z,22.85
2023-05-06T11:42:08.603Z,23.03
2023-05-06T11:44:39.480Z,22.95
2023-05-06T11:47:07.055Z,22.84
2023-05-06T11:49:43.210Z,22.50
2023-05-06T11:52:11.074Z,22.57
2023-05-06T11:54:42.173Z,22.49
2023-05-06T11:57:09.311Z,22.38
2023-05-06T11:59:37.811Z,21.99
2023-05-06T12:02:09.373Z,21.83
2023-05-06T12:04:44.070Z,21.79
2023-05-06T12:07:12.969Z,21.81
2023-05-06T12:09:45.687Z,21.63
2023-05-06T12:12:14.901Z,21.39
2023-05-06T12:14:41.617Z,21.06
2023-05-06T12:17:08.147Z,20.97
2023-05-06T12:19:35.136Z,20.89
2023-05-06T12:22:15.050Z,20.80
2023-05-06T12:24:41.564Z,20.85
2023-05-06T12:27:08.060Z,21.06
2023-05-06T12:29:34.378Z,21.28
2023-05-06T12:32:09.157Z,21.49
2023-05-06T12:34:37.683Z,21.77
2023-05-06T12:37:05.137Z,21.89
2023-05-06T12:39:36.263Z,22.28
2023-05-06T12:42:03.190Z,22.29
2023-05-06T12:44:33.254Z,22.40
2023-05-06T12:47:01.502Z,22.83
2023-05-06T12:49:28.041Z,23.00
2023-05-06T12:52:08.318Z,22.59
2023-05-06T12:54:34.652Z,22.53
2023-05-06T12:57:01.371Z,22.56
2023-05-06T12:59:27.875Z,22.88
2023-05-06T13:01:54.242Z,23.01
2023-05-06T13:04:21.910Z,22.47
2023-05-06T13:06:50.209Z,22.73
2023-05-06T13:09:16.889Z,22.61
2023-05-06T13:11:43.394Z,22.45
2023-05-06T13:14:10.816Z,22.20
2023-05-06T13:16:37.765Z,21.81
2023-05-06T13:19:08.221Z,21.92
2023-05-06T13:21:38.221Z,22.23
2023-05-06T13:24:05.967Z,22.07
2023-05-06T13:26:33.222Z,21.99
2023-05-06T13:28:59.573Z,21.73
2023-05-06T13:31:28.185Z,21.61
2023-05-06T13:33:55.411Z,21.76
2023-05-06T13:36:23.208Z,21.70
2023-05-06T13:38:49.964Z,21.67
2023-05-06T13:41:16.406Z,21.57
2023-05-06T13:43:42.965Z,21.47
2023-05-06T13:46:09.621Z,21.37
2023-05-06T13:48:36.030Z,21.47
2023-05-06T13:51:02.495Z,21.52
2023-05-06T13:53:28.802Z,21.56
2023-05-06T13:55:55.160Z,21.54
2023-05-06T13:58:21.496Z,21.49
2023-05-06T14:00:48.600Z,21.58
2023-05-06T14:03:14.940Z,21.63
2023-05-06T14:05:41.420Z,21.56
2023-05-06T14:08:08.215Z,21.54
2023-05-06T14:10:34.554Z,21.35
2023-05-06T14:13:01.067Z,21.13
2023-05-06T14:15:27.634Z,21.16
2023-05-06T14:17:54.165Z,21.23
2023-05-06T14:20:20.650Z,21.29
2023-05-06T14:22:47.963Z,21.42
2023-05-06T14:25:14.416Z,21.34
2023-05-06T14:27:40.945Z,21.30
2023-05-06T14:30:09.736Z,21.31
2023-05-06T14:32:36.979Z,21.19
2023-05-06T14:35:04.312Z,21.13
2023-05-06T14:37:30.709Z,21.16
2023-05-06T14:39:57.553Z,21.03
2023-05-06T14:42:23.931Z,20.92
2023-05-06T14:44:50.594Z,20.89
2023-05-06T14:47:17.320Z,20.89
2023-05-06T14:49:43.680Z,20.87
2023-05-06T14:52:10.003Z,20.80
2023-05-06T14:54:41.982Z,20.57
2023-05-06T14:57:11.718Z,20.48
2023-05-06T14:59:38.533Z,20.32
2023-05-06T15:02:08.507Z,20.28
2023-05-06T15:04:35.446Z,20.25
2023-05-06T15:07:02.678Z,20.18
2023-05-06T15:09:29.022Z,20.28
2023-05-06T15:11:55.381Z,20.20
2023-05-06T15:14:22.722Z,20.21
2023-05-06T15:16:49.284Z,20.07
2023-05-06T15:19:15.749Z,20.01
2023-05-06T15:21:42.170Z,19.90
2023-05-06T15:24:08.779Z,19.83
2023-05-06T15:26:35.360Z,19.82
2023-05-06T15:29:01.841Z,19.82
2023-05-06T15:31:28.352Z,19.80
2023-05-06T15:33:54.718Z,19.58
2023-05-06T15:36:21.111Z,19.68
2023-05-06T15:38:50.756Z,19.76
2023-05-06T15:41:17.497Z,19.84
2023-05-06T15:43:44.382Z,19.82
2023-05-06T15:46:11.578Z,19.81
2023-05-06T15:48:37.921Z,19.92
2023-05-06T15:51:04.390Z,19.86
2023-05-06T15:53:30.813Z,19.90
2023-05-06T15:56:07.244Z,19.88
2023-05-06T15:58:41.799Z,19.91
2023-05-06T16:01:09.269Z,19.86
2023-05-06T16:03:36.618Z,19.91
2023-05-06T16:06:03.358Z,19.95
2023-05-06T16:08:29.977Z,19.95
2023-05-06T16:10:56.279Z,19.98
2023-05-06T16:13:22.704Z,19.94
2023-05-06T16:15:49.263Z,19.85
2023-05-06T16:18:15.708Z,19.78
2023-05-06T16:20:42.029Z,19.74
2023-05-06T16:23:08.460Z,19.72
2023-05-06T16:25:35.059Z,19.66
2023-05-06T16:28:01.379Z,19.60
2023-05-06T16:30:27.796Z,19.53
2023-05-06T16:32:54.238Z,19.45
2023-05-06T16:35:20.742Z,19.40
2023-05-06T16:37:47.248Z,19.31
2023-05-06T16:40:18.355Z,19.24
2023-05-06T16:42:44.656Z,19.20
2023-05-06T16:45:11.534Z,19.09
2023-05-06T16:47:37.969Z,19.08
2023-05-06T16:50:04.702Z,18.95
2023-05-06T16:52:31.082Z,18.77
2023-05-06T16:54:57.406Z,18.69
2023-05-06T16:57:23.729Z,18.71
2023-05-06T16:59:50.375Z,18.59
2023-05-06T17:02:16.851Z,18.53
2023-05-06T17:04:43.257Z,18.45
2023-05-06T17:07:11.044Z,18.31
2023-05-06T17:09:38.210Z,18.29
2023-05-06T17:12:05.058Z,18.30
2023-05-06T17:14:31.418Z,18.12
2023-05-06T17:16:59.351Z,18.11
2023-05-06T17:19:25.833Z,18.03
2023-05-06T17:21:52.121Z,18.03
2023-05-06T17:24:18.465Z,18.03
2023-05-06T17:26:44.816Z,17.96
2023-05-06T17:29:11.109Z,17.88
2023-05-06T17:31:37.416Z,17.85
2023-05-06T17:34:03.751Z,17.72
2023-05-06T17:36:30.107Z,17.71
2023-05-06T17:39:04.588Z,17.57
2023-05-06T17:41:31.491Z,17.60
2023-05-06T17:43:57.820Z,17.53
2023-05-06T17:46:24.198Z,17.50
2023-05-06T17:48:50.615Z,17.48
2023-05-06T17:51:16.933Z,17.60
2023-05-06T17:53:43.216Z,17.47
2023-05-06T17:56:09.569Z,17.53
2023-05-06T17:58:35.953Z,17.46
2023-05-06T18:01:02.756Z,17.38
2023-05-06T18:03:29.179Z,17.50
2023-05-06T18:05:55.730Z,17.47
2023-05-06T18:08:22.073Z,17.28
2023-05-06T18:10:48.429Z,17.35
2023-05-06T18:13:14.865Z,17.20
2023-05-06T18:15:41.255Z,17.18
2023-05-06T18:18:07.605Z,17.00
2023-05-06T18:20:34.006Z,17.03
2023-05-06T18:23:00.346Z,17.27
2023-05-06T18:25:26.642Z,17.18
2023-05-06T18:27:53.002Z,17.10
2023-05-06T18:30:19.349Z,17.16
2023-05-06T18:32:45.721Z,17.09
2023-05-06T18:35:12.277Z,17.02
2023-05-06T18:37:39.114Z,16.99
2023-05-06T18:40:07.561Z,16.98
2023-05-06T18:42:34.670Z,16.92
2023-05-06T18:45:04.659Z,16.90
2023-05-06T18:47:32.033Z,17.00
2023-05-06T18:50:00.494Z,17.01
2023-05-06T18:52:27.107Z,17.01
2023-05-06T18:54:53.433Z,17.14
2023-05-06T18:57:19.887Z,17.20
2023-05-06T18:59:46.233Z,17.16
2023-05-06T19:02:12.558Z,17.16
2023-05-06T19:04:38.931Z,17.20
2023-05-06T19:07:05.362Z,17.16
2023-05-06T19:09:36.605Z,17.10
2023-05-06T19:12:04.079Z,17.03
2023-05-06T19:14:32.223Z,17.01
2023-05-06T19:16:58.583Z,16.83
2023-05-06T19:19:24.897Z,16.93
2023-05-06T19:21:51.252Z,16.76
2023-05-06T19:24:17.585Z,16.84
2023-05-06T19:26:44.972Z,16.94
2023-05-06T19:29:11.420Z,17.03
2023-05-06T19:31:37.981Z,17.02
2023-05-06T19:34:04.591Z,17.02
2023-05-06T19:36:31.556Z,16.99
2023-05-06T19:38:57.856Z,16.98
2023-05-06T19:41:24.395Z,16.91
2023-05-06T19:43:51.193Z,16.82
2023-05-06T19:46:18.388Z,16.90
2023-05-06T19:48:45.892Z,16.69
2023-05-06T19:51:12.189Z,16.90
2023-05-06T19:53:38.658Z,16.74
2023-05-06T19:56:12.647Z,16.80
2023-05-06T19:58:39.528Z,16.63
2023-05-06T20:01:06.023Z,16.65
2023-05-06T20:03:33.064Z,16.78
2023-05-06T20:05:59.579Z,16.72
2023-05-06T20:08:26.033Z,16.76
2023-05-06T20:10:52.713Z,16.57
2023-05-06T20:13:19.122Z,16.54
2023-05-06T20:15:45.742Z,16.66
2023-05-06T20:18:12.115Z,16.70
2023-05-06T20:20:39.808Z,16.68
2023-05-06T20:23:06.372Z,16.69
2023-05-06T20:25:32.930Z,16.62
2023-05-06T20:27:59.674Z,16.60
2023-05-06T20:30:26.409Z,16.56
2023-05-06T20:32:52.833Z,16.63
2023-05-06T20:35:19.241Z,16.49
2023-05-06T20:37:45.631Z,16.46
2023-05-06T20:40:12.519Z,16.37
2023-05-06T20:42:38.831Z,16.49
2023-05-06T20:45:05.856Z,16.49
2023-05-06T20:47:32.179Z,16.37
2023-05-06T20:49:58.522Z,16.36
2023-05-06T20:52:24.873Z,16.33
2023-05-06T20:54:51.232Z,16.27
2023-05-06T20:57:17.640Z,16.19
2023-05-06T20:59:44.312Z,16.17
2023-05-06T21:02:10.727Z,16.24
2023-05-06T21:04:37.265Z,16.15
2023-05-06T21:07:03.556Z,16.23
2023-05-06T21:09:29.900Z,16.36
2023-05-06T21:11:56.456Z,16.42
2023-05-06T21:14:24.631Z,16.33
2023-05-06T21:16:51.699Z,16.39
2023-05-06T21:19:18.334Z,16.36
2023-05-06T21:21:44.902Z,16.41
2023-05-06T21:24:11.904Z,16.33
2023-05-06T21:26:39.278Z,16.38
2023-05-06T21:29:05.581Z,16.26
2023-05-06T21:31:32.042Z,16.29
2023-05-06T21:33:58.997Z,16.32
2023-05-06T21:36:25.900Z,16.23
2023-05-06T21:39:01.716Z,16.33
2023-05-06T21:41:28.103Z,16.29
2023-05-06T21:43:54.789Z,16.23
2023-05-06T21:46:21.118Z,16.22
2023-05-06T21:48:47.505Z,16.16
2023-05-06T21:51:13.821Z,16.07
2023-05-06T21:53:40.206Z,16.15
2023-05-06T21:56:06.519Z,16.01
2023-05-06T21:58:32.805Z,16.14
2023-05-06T22:00:59.132Z,16.08
2023-05-06T22:03:27.468Z,16.07
2023-05-06T22:05:53.823Z,16.16
2023-05-06T22:08:20.197Z,16.20
2023-05-06T22:10:46.586Z,16.24
2023-05-06T22:13:12.956Z,16.18
2023-05-06T22:15:39.563Z,16.22
2023-05-06T22:18:07.126Z,16.31
2023-05-06T22:20:33.631Z,16.37
2023-05-06T22:22:59.985Z,16.35
2023-05-06T22:25:26.289Z,16.27
2023-05-06T22:27:52.637Z,16.22
2023-05-06T22:30:18.964Z,16.22
2023-05-06T22:32:45.295Z,16.21
2023-05-06T22:35:12.066Z,16.29
2023-05-06T22:37:38.571Z,16.29
2023-05-06T22:40:06.978Z,16.18
2023-05-06T22:42:33.399Z,16.22
2023-05-06T22:44:59.735Z,16.21
2023-05-06T22:47:26.123Z,16.15
2023-05-06T22:49:52.448Z,16.17
2023-05-06T22:52:19.307Z,16.09
2023-05-06T22:54:45.680Z,16.06
2023-05-06T22:57:12.088Z,16.07
2023-05-06T22:59:38.501Z,15.96
2023-05-06T23:02:04.814Z,16.08
2023-05-06T23:04:31.242Z,16.11
2023-05-06T23:06:57.704Z,16.07
2023-05-06T23:09:24.066Z,16.19
2023-05-06T23:11:50.467Z,16.16
2023-05-06T23:14:17.179Z,16.11
2023-05-06T23:16:43.518Z,16.19
2023-05-06T23:19:09.824Z,16.02
2023-05-06T23:21:36.189Z,16.05
2023-05-06T23:24:02.580Z,16.06
2023-05-06T23:26:28.938Z,16.12
2023-05-06T23:28:55.625Z,16.09
2023-05-06T23:31:21.986Z,16.14
2023-05-06T23:33:48.255Z,16.12
2023-05-06T23:36:16.026Z,16.06
2023-05-06T23:38:42.340Z,16.11
2023-05-06T23:41:08.669Z,16.08
2023-05-06T23:43:35.062Z,16.01
2023-05-06T23:46:01.453Z,16.01
2023-05-06T23:48:27.786Z,15.99
2023-05-06T23:50:54.494Z,15.93
2023-05-06T23:53:21.075Z,16.02
2023-05-06T23:55:47.712Z,16.00
2023-05-06T23:58:14.320Z,16.06
